Pratinha, Brazil
Current Conditions -  °F | °C
As of 6:00 AM on Monday 24 Nov 2014 (Local Time) from SBUR Reporting Station
Few Clouds Few Clouds  
Wind Chill: 70°   Ceiling: Unl
Heat Index: 70°   Visibility: 6mi
Dew Point: 70°   Wind: 7mph
Humidity: 100%   Direction: 350°N
Pressure: 29.97"   Gusts: NA
Location:  19.75°S, 46.38°W
Report Text: SBUR 240800Z 35006KT 9999 FEW020 21/21 Q1015
Loading
Personal Weather Stations






























Interactive Weather Map New forecast layout! Learn more

10-Day Weather Forecast

Advertisements
Track Severe Weather on mobile